CW6301 Weather Reports


Display with metric or nautical units.
time (UTC)temp
F
wind
direction
speed
MPH
gust
MPH
rain 1hr
in
rain 24hr
in
rain mn
in
humidity
%
barometer
mb
20181218215954 39 239 2.0 4.0 0.00 0.00 0.00 60 1015.1
20181218212954 40 252 2.0 5.0 0.00 0.00 0.00 58 1015.1
20181218205953 40 249 1.0 4.0 0.00 0.00 0.00 56 1015.3
20181218202952 41 262 0.0 6.0 0.00 0.00 0.00 53 1015.3
20181218195951 41 291 1.0 4.0 0.00 0.00 0.00 55 1015.6
20181218192952 41 246 2.0 4.0 0.00 0.00 0.00 56 1016.1
20181218185951 40 153 1.0 5.0 0.00 0.00 0.00 60 1016.6
20181218182949 39 262 1.0 7.0 0.00 0.00 0.00 58 1017.1
20181218175948 38 257 0.0 7.0 0.00 0.00 0.00 61 1017.6
20181218172947 37 258 1.0 6.0 0.00 0.00 0.00 65 1018.2
20181218165947 35 266 0.0 3.0 0.00 0.00 0.00 71 1019.1
20181218162946 34 239 0.0 3.0 0.00 0.00 0.00 76 1019.7
20181218155945 33 257 1.0 3.0 0.00 0.00 0.00 82 1020.1
20181218152945 31 57 1.0 3.0 0.00 0.00 0.00 86 1020.4
20181218145944 30 293 2.0 2.0 0.00 0.00 0.00 86 1020.7
20181218142943 29 352 1.0 2.0 0.00 0.00 0.00 85 1020.6
20181218140013 27 355 0.0 1.0 0.00 0.00 0.00 87 1020.4
20181218132942 24 37 0.0 1.0 0.00 0.00 0.00 91 1020.4
20181218130011 22 273 0.0 0.0 0.00 0.00 0.00 92 1020.4
20181218122940 21 273 0.0 0.0 0.00 0.00 0.00 92 1020.5
20181218120010 19 273 0.0 0.0 0.00 0.00 0.00 93 1020.5
20181218113009 17 273 0.0 0.0 0.00 0.00 0.00 93 1020.5
20181218110008 17 273 0.0 0.0 0.00 0.00 0.00 92 1020.7
20181218103008 17 273 0.0 0.0 0.00 0.00 0.00 93 1020.8
20181218100007 18 273 0.0 0.0 0.00 0.00 0.00 93 1021.1
20181218093006 18 273 0.0 0.0 0.00 0.00 0.00 92 1021.3
20181218090006 18 273 0.0 0.0 0.00 0.00 0.00 93 1021.4
20181218083007 18 273 0.0 0.0 0.00 0.00 0.00 91 1021.4
20181218080004 18 273 0.0 0.0 0.00 0.00 0.00 91 1021.4
20181218073004 19 273 0.0 0.0 0.00 0.00 0.00 89 1021.4
20181218070003 20 273 0.0 0.0 0.00 0.00 0.00 89 1021.3
20181218063002 20 273 0.0 0.0 0.00 0.00 0.00 91 1021.2
20181218060001 19 273 0.0 0.0 0.00 0.00 0.00 91 1021.4
20181218053000 20 273 0.0 0.0 0.00 0.00 0.00 91 1021.2
20181218050000 20 273 0.0 0.0 0.00 0.00 0.00 89 1021.3
20181218042959 21 273 0.0 0.0 0.00 0.00 0.00 87 1021.2
20181218035959 22 273 0.0 0.0 0.00 0.00 0.00 86 1021.4
20181218032959 21 273 0.0 0.0 0.00 0.00 0.00 88 1021.3
20181218025957 22 271 0.0 0.0 0.00 0.00 0.00 85 1021.2
20181218022956 23 271 0.0 1.0 0.00 0.00 0.00 86 1021.5
20181218015957 24 271 0.0 0.0 0.00 0.00 0.00 82 1021.8
20181218012955 24 273 0.0 1.0 0.00 0.00 0.00 83 1021.7
20181218005954 25 274 0.0 1.0 0.00 0.00 0.00 80 1021.4
20181218002953 28 274 0.0 2.0 0.00 0.00 0.00 76 1021.8
20181217235956 28 247 2.0 2.0 0.00 0.00 0.00 75 1021.6
20181217232952 29 266 1.0 3.0 0.00 0.00 0.00 75 1021.6
20181217225952 30 255 2.0 3.0 0.00 0.00 0.00 74 1021.6
20181217222951 30 269 0.0 3.0 0.00 0.00 0.00 72 1021.5